Soudan, Minnesota
Current Conditions -  °F | °C
As of 7:33 AM on Sunday 23 Nov 2014 (Local Time) from KELO Reporting Station
Haze Haze  
Wind Chill: 34°   Ceiling: 300
Heat Index: 34°   Visibility: 2mi
Dew Point: 34°   Wind: 0mph
Humidity: 100%   Direction: NA
Pressure: 29.4"   Gusts: NA
Location:  47.82°N, 92.24°W
Report Text: KELO 231333Z AUTO 00000KT 2SM BR OVC003 01/01 A2940 RMK AO2
Loading
Personal Weather Stations






























Interactive Weather Map New forecast layout! Learn more

10-Day Weather Forecast

Advertisements
Track Severe Weather on mobile